sensor_id;sensor_type;location;lat;lon;timestamp;P1;durP1;ratioP1;P2;durP2;ratioP2
50671;SDS011;46021;55.882;37.654;2022-11-15T00:01:28;1.45;;;0.65;;
50671;SDS011;46021;55.882;37.654;2022-11-15T00:04:14;2.15;;;0.93;;
50671;SDS011;46021;55.882;37.654;2022-11-15T00:07:00;0.50;;;0.50;;
50671;SDS011;46021;55.882;37.654;2022-11-15T00:09:47;0.75;;;0.45;;
50671;SDS011;46021;55.882;37.654;2022-11-15T00:12:33;5.32;;;1.00;;
50671;SDS011;46021;55.882;37.654;2022-11-15T00:15:18;1.98;;;0.85;;
50671;SDS011;46021;55.882;37.654;2022-11-15T00:18:05;1.15;;;0.60;;
50671;SDS011;46021;55.882;37.654;2022-11-15T00:20:51;0.98;;;0.60;;
50671;SDS011;46021;55.882;37.654;2022-11-15T00:23:37;0.88;;;0.68;;
50671;SDS011;46021;55.882;37.654;2022-11-15T00:26:24;0.40;;;0.40;;
50671;SDS011;46021;55.882;37.654;2022-11-15T00:29:10;1.83;;;1.05;;
50671;SDS011;46021;55.882;37.654;2022-11-15T00:31:55;1.05;;;0.55;;
50671;SDS011;46021;55.882;37.654;2022-11-15T00:34:41;2.85;;;0.80;;
50671;SDS011;46021;55.882;37.654;2022-11-15T00:37:28;4.40;;;1.13;;
50671;SDS011;46021;55.882;37.654;2022-11-15T00:40:14;1.33;;;0.93;;
50671;SDS011;46021;55.882;37.654;2022-11-15T00:43:02;0.98;;;0.60;;
50671;SDS011;46021;55.882;37.654;2022-11-15T00:45:47;1.67;;;1.23;;
50671;SDS011;46021;55.882;37.654;2022-11-15T00:48:33;1.00;;;0.68;;
50671;SDS011;46021;55.882;37.654;2022-11-15T00:51:18;0.40;;;0.40;;
50671;SDS011;46021;55.882;37.654;2022-11-15T00:54:04;3.45;;;0.77;;
50671;SDS011;46021;55.882;37.654;2022-11-15T00:56:50;3.10;;;1.05;;
50671;SDS011;46021;55.882;37.654;2022-11-15T00:59:37;1.80;;;0.55;;
50671;SDS011;46021;55.882;37.654;2022-11-15T01:02:23;2.90;;;0.57;;
50671;SDS011;46021;55.882;37.654;2022-11-15T01:05:08;0.63;;;0.57;;
50671;SDS011;46021;55.882;37.654;2022-11-15T01:07:54;7.47;;;0.52;;
50671;SDS011;46021;55.882;37.654;2022-11-15T01:10:41;6.53;;;0.70;;
50671;SDS011;46021;55.882;37.654;2022-11-15T01:13:29;1.70;;;0.52;;
50671;SDS011;46021;55.882;37.654;2022-11-15T01:16:17;0.73;;;0.55;;
50671;SDS011;46021;55.882;37.654;2022-11-15T01:19:03;0.80;;;0.50;;
50671;SDS011;46021;55.882;37.654;2022-11-15T01:21:49;0.43;;;0.40;;
50671;SDS011;46021;55.882;37.654;2022-11-15T01:24:35;1.08;;;0.52;;
50671;SDS011;46021;55.882;37.654;2022-11-15T01:27:21;1.90;;;0.73;;
50671;SDS011;46021;55.882;37.654;2022-11-15T01:30:07;2.30;;;0.55;;
50671;SDS011;46021;55.882;37.654;2022-11-15T01:32:55;0.73;;;0.50;;
50671;SDS011;46021;55.882;37.654;2022-11-15T01:35:41;0.55;;;0.50;;
50671;SDS011;46021;55.882;37.654;2022-11-15T01:38:26;0.65;;;0.50;;
50671;SDS011;46021;55.882;37.654;2022-11-15T01:41:14;0.57;;;0.50;;
50671;SDS011;46021;55.882;37.654;2022-11-15T01:47:24;1.40;;;0.85;;
50671;SDS011;46021;55.882;37.654;2022-11-15T01:50:15;3.83;;;0.68;;
50671;SDS011;46021;55.882;37.654;2022-11-15T01:53:05;0.57;;;0.50;;
50671;SDS011;46021;55.882;37.654;2022-11-15T01:55:51;1.25;;;0.70;;
50671;SDS011;46021;55.882;37.654;2022-11-15T01:58:39;0.73;;;0.73;;
50671;SDS011;46021;55.882;37.654;2022-11-15T02:01:28;3.92;;;0.50;;
50671;SDS011;46021;55.882;37.654;2022-11-15T02:04:16;1.63;;;0.73;;
50671;SDS011;46021;55.882;37.654;2022-11-15T02:07:05;2.13;;;0.70;;
50671;SDS011;46021;55.882;37.654;2022-11-15T02:09:53;0.60;;;0.60;;
50671;SDS011;46021;55.882;37.654;2022-11-15T02:12:40;2.00;;;0.70;;
50671;SDS011;46021;55.882;37.654;2022-11-15T02:15:30;8.35;;;1.40;;
50671;SDS011;46021;55.882;37.654;2022-11-15T02:18:22;2.70;;;0.82;;
50671;SDS011;46021;55.882;37.654;2022-11-15T02:21:16;1.92;;;0.90;;
50671;SDS011;46021;55.882;37.654;2022-11-15T02:27:34;2.35;;;0.77;;
50671;SDS011;46021;55.882;37.654;2022-11-15T02:30:35;2.85;;;1.38;;
50671;SDS011;46021;55.882;37.654;2022-11-15T02:33:28;0.82;;;0.68;;
50671;SDS011;46021;55.882;37.654;2022-11-15T02:36:25;0.88;;;0.57;;
50671;SDS011;46021;55.882;37.654;2022-11-15T02:39:21;0.55;;;0.55;;
50671;SDS011;46021;55.882;37.654;2022-11-15T02:42:14;3.83;;;1.80;;
50671;SDS011;46021;55.882;37.654;2022-11-15T02:45:23;2.85;;;1.30;;
50671;SDS011;46021;55.882;37.654;2022-11-15T02:48:14;3.55;;;0.95;;
50671;SDS011;46021;55.882;37.654;2022-11-15T02:51:01;4.50;;;1.00;;
50671;SDS011;46021;55.882;37.654;2022-11-15T02:53:48;0.98;;;0.65;;
50671;SDS011;46021;55.882;37.654;2022-11-15T02:56:33;1.02;;;0.90;;
50671;SDS011;46021;55.882;37.654;2022-11-15T03:02:53;1.95;;;0.95;;
50671;SDS011;46021;55.882;37.654;2022-11-15T03:05:52;1.38;;;0.93;;
50671;SDS011;46021;55.882;37.654;2022-11-15T03:08:46;0.68;;;0.68;;
50671;SDS011;46021;55.882;37.654;2022-11-15T03:11:43;3.58;;;1.05;;
50671;SDS011;46021;55.882;37.654;2022-11-15T03:14:34;3.30;;;0.90;;
50671;SDS011;46021;55.882;37.654;2022-11-15T03:17:23;2.75;;;0.90;;
50671;SDS011;46021;55.882;37.654;2022-11-15T03:20:13;2.70;;;0.95;;
50671;SDS011;46021;55.882;37.654;2022-11-15T03:23:04;2.40;;;0.95;;
50671;SDS011;46021;55.882;37.654;2022-11-15T03:25:53;0.85;;;0.52;;
50671;SDS011;46021;55.882;37.654;2022-11-15T03:28:42;2.45;;;1.05;;
50671;SDS011;46021;55.882;37.654;2022-11-15T03:31:32;2.80;;;1.00;;
50671;SDS011;46021;55.882;37.654;2022-11-15T03:34:34;0.80;;;0.80;;
50671;SDS011;46021;55.882;37.654;2022-11-15T03:37:24;2.28;;;1.05;;
50671;SDS011;46021;55.882;37.654;2022-11-15T03:40:16;4.50;;;0.85;;
50671;SDS011;46021;55.882;37.654;2022-11-15T03:43:08;11.45;;;1.90;;
50671;SDS011;46021;55.882;37.654;2022-11-15T03:46:00;0.75;;;0.70;;
50671;SDS011;46021;55.882;37.654;2022-11-15T03:48:50;2.83;;;0.93;;
50671;SDS011;46021;55.882;37.654;2022-11-15T03:51:41;9.05;;;1.50;;
50671;SDS011;46021;55.882;37.654;2022-11-15T03:54:27;11.98;;;2.05;;
50671;SDS011;46021;55.882;37.654;2022-11-15T03:57:14;2.58;;;1.50;;
50671;SDS011;46021;55.882;37.654;2022-11-15T04:00:00;4.13;;;0.82;;
50671;SDS011;46021;55.882;37.654;2022-11-15T04:02:46;3.00;;;0.85;;
50671;SDS011;46021;55.882;37.654;2022-11-15T04:05:31;2.28;;;1.33;;
50671;SDS011;46021;55.882;37.654;2022-11-15T04:08:17;14.57;;;1.38;;
50671;SDS011;46021;55.882;37.654;2022-11-15T04:11:02;2.45;;;0.95;;
50671;SDS011;46021;55.882;37.654;2022-11-15T04:13:49;4.13;;;1.02;;
50671;SDS011;46021;55.882;37.654;2022-11-15T04:16:35;8.68;;;1.70;;
50671;SDS011;46021;55.882;37.654;2022-11-15T04:19:20;1.02;;;0.75;;
50671;SDS011;46021;55.882;37.654;2022-11-15T04:22:23;3.22;;;1.38;;
50671;SDS011;46021;55.882;37.654;2022-11-15T04:25:27;1.70;;;1.08;;
50671;SDS011;46021;55.882;37.654;2022-11-15T04:28:13;4.05;;;0.77;;
50671;SDS011;46021;55.882;37.654;2022-11-15T04:31:00;3.00;;;0.77;;
50671;SDS011;46021;55.882;37.654;2022-11-15T04:33:46;4.22;;;1.20;;
50671;SDS011;46021;55.882;37.654;2022-11-15T04:36:31;0.63;;;0.63;;
50671;SDS011;46021;55.882;37.654;2022-11-15T04:39:35;3.15;;;1.02;;
50671;SDS011;46021;55.882;37.654;2022-11-15T04:42:21;1.20;;;0.63;;
50671;SDS011;46021;55.882;37.654;2022-11-15T04:45:07;2.55;;;1.15;;
50671;SDS011;46021;55.882;37.654;2022-11-15T04:47:54;7.82;;;1.00;;
50671;SDS011;46021;55.882;37.654;2022-11-15T04:50:40;3.40;;;0.95;;
50671;SDS011;46021;55.882;37.654;2022-11-15T04:53:26;1.95;;;1.08;;
50671;SDS011;46021;55.882;37.654;2022-11-15T04:56:12;5.15;;;1.23;;
50671;SDS011;46021;55.882;37.654;2022-11-15T04:58:58;3.80;;;1.30;;
50671;SDS011;46021;55.882;37.654;2022-11-15T05:01:44;2.55;;;1.05;;
50671;SDS011;46021;55.882;37.654;2022-11-15T05:04:31;3.05;;;1.30;;
50671;SDS011;46021;55.882;37.654;2022-11-15T05:07:15;3.72;;;1.77;;
50671;SDS011;46021;55.882;37.654;2022-11-15T05:10:01;4.10;;;1.30;;
50671;SDS011;46021;55.882;37.654;2022-11-15T05:12:46;2.35;;;1.10;;
50671;SDS011;46021;55.882;37.654;2022-11-15T05:15:32;4.05;;;1.40;;
50671;SDS011;46021;55.882;37.654;2022-11-15T05:18:17;5.05;;;1.50;;
50671;SDS011;46021;55.882;37.654;2022-11-15T05:21:05;2.63;;;1.55;;
50671;SDS011;46021;55.882;37.654;2022-11-15T05:23:51;3.47;;;1.40;;
50671;SDS011;46021;55.882;37.654;2022-11-15T05:26:37;5.07;;;1.15;;
50671;SDS011;46021;55.882;37.654;2022-11-15T05:29:22;5.03;;;1.13;;
50671;SDS011;46021;55.882;37.654;2022-11-15T05:32:08;5.95;;;1.20;;
50671;SDS011;46021;55.882;37.654;2022-11-15T05:34:56;1.13;;;1.00;;
50671;SDS011;46021;55.882;37.654;2022-11-15T05:37:43;11.43;;;1.42;;
50671;SDS011;46021;55.882;37.654;2022-11-15T05:40:29;4.93;;;1.25;;
50671;SDS011;46021;55.882;37.654;2022-11-15T05:43:16;1.35;;;1.10;;
50671;SDS011;46021;55.882;37.654;2022-11-15T05:46:02;2.08;;;1.05;;
50671;SDS011;46021;55.882;37.654;2022-11-15T05:48:50;1.35;;;1.00;;
50671;SDS011;46021;55.882;37.654;2022-11-15T05:51:38;14.00;;;1.55;;
50671;SDS011;46021;55.882;37.654;2022-11-15T05:54:27;2.05;;;0.95;;
50671;SDS011;46021;55.882;37.654;2022-11-15T05:57:13;1.60;;;1.10;;
50671;SDS011;46021;55.882;37.654;2022-11-15T05:59:58;5.57;;;1.27;;
50671;SDS011;46021;55.882;37.654;2022-11-15T06:02:44;1.90;;;1.10;;
50671;SDS011;46021;55.882;37.654;2022-11-15T06:05:30;3.00;;;1.42;;
50671;SDS011;46021;55.882;37.654;2022-11-15T06:08:15;9.15;;;0.80;;
50671;SDS011;46021;55.882;37.654;2022-11-15T06:11:06;4.43;;;1.00;;
50671;SDS011;46021;55.882;37.654;2022-11-15T06:13:52;5.18;;;1.08;;
50671;SDS011;46021;55.882;37.654;2022-11-15T06:16:38;2.30;;;1.00;;
50671;SDS011;46021;55.882;37.654;2022-11-15T06:19:24;7.50;;;0.90;;
50671;SDS011;46021;55.882;37.654;2022-11-15T06:22:10;3.78;;;1.00;;
50671;SDS011;46021;55.882;37.654;2022-11-15T06:24:55;1.90;;;1.00;;
50671;SDS011;46021;55.882;37.654;2022-11-15T06:27:42;2.70;;;0.98;;
50671;SDS011;46021;55.882;37.654;2022-11-15T06:30:28;2.05;;;1.05;;
50671;SDS011;46021;55.882;37.654;2022-11-15T06:33:14;7.38;;;1.80;;
50671;SDS011;46021;55.882;37.654;2022-11-15T06:36:00;2.13;;;0.50;;
50671;SDS011;46021;55.882;37.654;2022-11-15T06:38:46;0.75;;;0.55;;
50671;SDS011;46021;55.882;37.654;2022-11-15T06:41:33;13.52;;;2.33;;
50671;SDS011;46021;55.882;37.654;2022-11-15T06:44:21;0.70;;;0.68;;
50671;SDS011;46021;55.882;37.654;2022-11-15T06:47:08;7.22;;;2.15;;
50671;SDS011;46021;55.882;37.654;2022-11-15T06:49:53;11.57;;;1.92;;
50671;SDS011;46021;55.882;37.654;2022-11-15T06:52:39;1.67;;;0.95;;
50671;SDS011;46021;55.882;37.654;2022-11-15T06:55:25;2.28;;;0.60;;
50671;SDS011;46021;55.882;37.654;2022-11-15T06:58:10;5.55;;;1.30;;
50671;SDS011;46021;55.882;37.654;2022-11-15T07:01:00;4.68;;;1.50;;
50671;SDS011;46021;55.882;37.654;2022-11-15T07:03:47;1.60;;;0.93;;
50671;SDS011;46021;55.882;37.654;2022-11-15T07:06:33;8.50;;;1.48;;
50671;SDS011;46021;55.882;37.654;2022-11-15T07:09:19;3.22;;;1.08;;
50671;SDS011;46021;55.882;37.654;2022-11-15T07:12:05;6.13;;;1.20;;
50671;SDS011;46021;55.882;37.654;2022-11-15T07:14:50;13.90;;;1.25;;
50671;SDS011;46021;55.882;37.654;2022-11-15T07:17:37;4.38;;;1.20;;
50671;SDS011;46021;55.882;37.654;2022-11-15T07:20:23;3.83;;;1.30;;
50671;SDS011;46021;55.882;37.654;2022-11-15T07:23:09;8.95;;;1.85;;
50671;SDS011;46021;55.882;37.654;2022-11-15T07:25:56;2.55;;;1.33;;
50671;SDS011;46021;55.882;37.654;2022-11-15T07:28:42;4.18;;;1.33;;
50671;SDS011;46021;55.882;37.654;2022-11-15T07:31:27;2.00;;;1.00;;
50671;SDS011;46021;55.882;37.654;2022-11-15T07:34:14;2.55;;;1.23;;
50671;SDS011;46021;55.882;37.654;2022-11-15T07:37:00;2.75;;;1.48;;
50671;SDS011;46021;55.882;37.654;2022-11-15T07:39:46;5.25;;;1.30;;
50671;SDS011;46021;55.882;37.654;2022-11-15T07:42:32;5.18;;;1.45;;
50671;SDS011;46021;55.882;37.654;2022-11-15T07:45:39;5.93;;;1.20;;
50671;SDS011;46021;55.882;37.654;2022-11-15T07:48:26;8.95;;;1.77;;
50671;SDS011;46021;55.882;37.654;2022-11-15T07:51:13;2.38;;;1.52;;
50671;SDS011;46021;55.882;37.654;2022-11-15T07:53:59;4.03;;;1.42;;
50671;SDS011;46021;55.882;37.654;2022-11-15T07:56:45;5.07;;;2.17;;
50671;SDS011;46021;55.882;37.654;2022-11-15T07:59:31;2.90;;;1.58;;
50671;SDS011;46021;55.882;37.654;2022-11-15T08:02:18;13.35;;;1.48;;
50671;SDS011;46021;55.882;37.654;2022-11-15T08:05:04;3.92;;;1.60;;
50671;SDS011;46021;55.882;37.654;2022-11-15T08:07:51;4.13;;;1.90;;
50671;SDS011;46021;55.882;37.654;2022-11-15T08:10:39;11.27;;;1.73;;
50671;SDS011;46021;55.882;37.654;2022-11-15T08:13:25;6.80;;;1.88;;
50671;SDS011;46021;55.882;37.654;2022-11-15T08:16:11;4.90;;;1.35;;
50671;SDS011;46021;55.882;37.654;2022-11-15T08:18:57;4.65;;;1.25;;
50671;SDS011;46021;55.882;37.654;2022-11-15T08:21:42;4.00;;;1.63;;
50671;SDS011;46021;55.882;37.654;2022-11-15T08:24:29;1.65;;;1.10;;
50671;SDS011;46021;55.882;37.654;2022-11-15T08:27:15;5.28;;;1.35;;
50671;SDS011;46021;55.882;37.654;2022-11-15T08:30:01;7.13;;;1.35;;
50671;SDS011;46021;55.882;37.654;2022-11-15T08:32:46;6.05;;;1.60;;
50671;SDS011;46021;55.882;37.654;2022-11-15T08:35:33;5.53;;;1.63;;
50671;SDS011;46021;55.882;37.654;2022-11-15T08:38:18;1.95;;;1.10;;
50671;SDS011;46021;55.882;37.654;2022-11-15T08:41:05;5.82;;;1.63;;
50671;SDS011;46021;55.882;37.654;2022-11-15T08:43:51;6.75;;;1.80;;
50671;SDS011;46021;55.882;37.654;2022-11-15T08:46:37;3.17;;;1.55;;
50671;SDS011;46021;55.882;37.654;2022-11-15T08:49:22;11.52;;;2.17;;
50671;SDS011;46021;55.882;37.654;2022-11-15T08:52:08;6.40;;;2.00;;
50671;SDS011;46021;55.882;37.654;2022-11-15T08:54:53;3.50;;;1.85;;
50671;SDS011;46021;55.882;37.654;2022-11-15T08:57:40;6.00;;;1.98;;
50671;SDS011;46021;55.882;37.654;2022-11-15T09:00:26;7.72;;;1.77;;
50671;SDS011;46021;55.882;37.654;2022-11-15T09:03:11;3.05;;;1.45;;
50671;SDS011;46021;55.882;37.654;2022-11-15T09:05:58;13.70;;;2.30;;
50671;SDS011;46021;55.882;37.654;2022-11-15T09:08:45;2.33;;;1.35;;
50671;SDS011;46021;55.882;37.654;2022-11-15T09:11:31;6.13;;;1.42;;
50671;SDS011;46021;55.882;37.654;2022-11-15T09:14:18;1.90;;;0.95;;
50671;SDS011;46021;55.882;37.654;2022-11-15T09:17:06;6.50;;;1.90;;
50671;SDS011;46021;55.882;37.654;2022-11-15T09:19:53;6.87;;;1.73;;
50671;SDS011;46021;55.882;37.654;2022-11-15T09:22:39;3.80;;;1.55;;
50671;SDS011;46021;55.882;37.654;2022-11-15T09:25:25;12.90;;;2.08;;
50671;SDS011;46021;55.882;37.654;2022-11-15T09:28:11;4.53;;;1.75;;
50671;SDS011;46021;55.882;37.654;2022-11-15T09:30:58;8.40;;;1.95;;
50671;SDS011;46021;55.882;37.654;2022-11-15T09:33:45;4.03;;;1.83;;
50671;SDS011;46021;55.882;37.654;2022-11-15T09:36:31;7.30;;;1.25;;
50671;SDS011;46021;55.882;37.654;2022-11-15T09:39:17;4.25;;;1.95;;
50671;SDS011;46021;55.882;37.654;2022-11-15T09:42:12;4.95;;;1.85;;
50671;SDS011;46021;55.882;37.654;2022-11-15T09:45:16;7.25;;;2.00;;
50671;SDS011;46021;55.882;37.654;2022-11-15T09:51:42;4.15;;;2.15;;
50671;SDS011;46021;55.882;37.654;2022-11-15T09:54:16;4.25;;;1.83;;
50671;SDS011;46021;55.882;37.654;2022-11-15T09:56:50;12.45;;;2.17;;
50671;SDS011;46021;55.882;37.654;2022-11-15T10:01:55;4.28;;;1.60;;
50671;SDS011;46021;55.882;37.654;2022-11-15T10:04:29;11.88;;;1.63;;
50671;SDS011;46021;55.882;37.654;2022-11-15T10:07:00;4.25;;;1.80;;
50671;SDS011;46021;55.882;37.654;2022-11-15T10:09:31;9.57;;;1.70;;
50671;SDS011;46021;55.882;37.654;2022-11-15T10:12:06;15.82;;;1.85;;
50671;SDS011;46021;55.882;37.654;2022-11-15T10:14:34;11.13;;;3.05;;
50671;SDS011;46021;55.882;37.654;2022-11-15T10:17:18;11.65;;;1.85;;
50671;SDS011;46021;55.882;37.654;2022-11-15T10:20:00;10.32;;;2.40;;
50671;SDS011;46021;55.882;37.654;2022-11-15T10:22:39;4.13;;;1.77;;
50671;SDS011;46021;55.882;37.654;2022-11-15T10:27:55;2.97;;;1.58;;
50671;SDS011;46021;55.882;37.654;2022-11-15T10:30:23;3.22;;;1.88;;
50671;SDS011;46021;55.882;37.654;2022-11-15T10:32:58;10.18;;;2.13;;
50671;SDS011;46021;55.882;37.654;2022-11-15T10:35:36;7.00;;;2.17;;
50671;SDS011;46021;55.882;37.654;2022-11-15T10:38:06;1.80;;;1.20;;
50671;SDS011;46021;55.882;37.654;2022-11-15T10:40:35;24.90;;;3.22;;
50671;SDS011;46021;55.882;37.654;2022-11-15T10:45:39;16.33;;;1.60;;
50671;SDS011;46021;55.882;37.654;2022-11-15T10:48:23;10.52;;;2.00;;
50671;SDS011;46021;55.882;37.654;2022-11-15T10:50:52;6.57;;;2.47;;
50671;SDS011;46021;55.882;37.654;2022-11-15T10:53:25;6.03;;;2.03;;
50671;SDS011;46021;55.882;37.654;2022-11-15T10:55:58;6.07;;;2.15;;
50671;SDS011;46021;55.882;37.654;2022-11-15T10:58:34;9.50;;;2.40;;
50671;SDS011;46021;55.882;37.654;2022-11-15T11:01:14;5.60;;;2.30;;
50671;SDS011;46021;55.882;37.654;2022-11-15T11:03:43;5.63;;;2.35;;
50671;SDS011;46021;55.882;37.654;2022-11-15T11:06:12;6.60;;;2.03;;
50671;SDS011;46021;55.882;37.654;2022-11-15T11:08:42;9.75;;;2.53;;
50671;SDS011;46021;55.882;37.654;2022-11-15T11:11:21;14.13;;;3.10;;
50671;SDS011;46021;55.882;37.654;2022-11-15T11:13:48;7.90;;;2.33;;
50671;SDS011;46021;55.882;37.654;2022-11-15T11:22:10;8.95;;;2.88;;
50671;SDS011;46021;55.882;37.654;2022-11-15T11:24:46;5.47;;;2.22;;
50671;SDS011;46021;55.882;37.654;2022-11-15T11:27:27;5.70;;;2.40;;
50671;SDS011;46021;55.882;37.654;2022-11-15T11:30:09;6.30;;;2.17;;
50671;SDS011;46021;55.882;37.654;2022-11-15T11:35:43;9.57;;;3.13;;
50671;SDS011;46021;55.882;37.654;2022-11-15T11:38:21;10.82;;;3.17;;
50671;SDS011;46021;55.882;37.654;2022-11-15T11:43:41;7.03;;;2.28;;
50671;SDS011;46021;55.882;37.654;2022-11-15T11:46:28;11.82;;;2.67;;
50671;SDS011;46021;55.882;37.654;2022-11-15T11:49:08;9.38;;;2.85;;
50671;SDS011;46021;55.882;37.654;2022-11-15T11:51:38;13.07;;;3.25;;
50671;SDS011;46021;55.882;37.654;2022-11-15T11:54:11;13.57;;;2.60;;
50671;SDS011;46021;55.882;37.654;2022-11-15T11:56:43;6.10;;;2.60;;
50671;SDS011;46021;55.882;37.654;2022-11-15T11:59:12;7.53;;;2.97;;
50671;SDS011;46021;55.882;37.654;2022-11-15T12:01:46;16.10;;;2.67;;
50671;SDS011;46021;55.882;37.654;2022-11-15T12:04:14;16.48;;;4.75;;
50671;SDS011;46021;55.882;37.654;2022-11-15T12:06:47;6.82;;;2.60;;
50671;SDS011;46021;55.882;37.654;2022-11-15T12:09:20;6.78;;;2.47;;
50671;SDS011;46021;55.882;37.654;2022-11-15T12:11:58;12.68;;;2.50;;
50671;SDS011;46021;55.882;37.654;2022-11-15T12:14:32;16.92;;;3.00;;
50671;SDS011;46021;55.882;37.654;2022-11-15T12:17:02;19.70;;;3.28;;
50671;SDS011;46021;55.882;37.654;2022-11-15T12:19:30;8.15;;;2.25;;
50671;SDS011;46021;55.882;37.654;2022-11-15T12:21:59;10.27;;;2.17;;
50671;SDS011;46021;55.882;37.654;2022-11-15T12:24:32;8.27;;;2.08;;
50671;SDS011;46021;55.882;37.654;2022-11-15T12:27:06;3.53;;;2.00;;
50671;SDS011;46021;55.882;37.654;2022-11-15T12:29:43;3.42;;;2.03;;
50671;SDS011;46021;55.882;37.654;2022-11-15T12:32:17;6.28;;;2.88;;
50671;SDS011;46021;55.882;37.654;2022-11-15T12:34:51;7.10;;;2.90;;
50671;SDS011;46021;55.882;37.654;2022-11-15T12:37:33;7.43;;;2.47;;
50671;SDS011;46021;55.882;37.654;2022-11-15T12:40:20;8.90;;;2.65;;
50671;SDS011;46021;55.882;37.654;2022-11-15T12:43:10;18.00;;;2.95;;
50671;SDS011;46021;55.882;37.654;2022-11-15T12:46:03;4.68;;;1.63;;
50671;SDS011;46021;55.882;37.654;2022-11-15T13:00:05;4.72;;;2.42;;
50671;SDS011;46021;55.882;37.654;2022-11-15T13:03:12;9.45;;;2.35;;
50671;SDS011;46021;55.882;37.654;2022-11-15T13:05:58;5.10;;;2.25;;
50671;SDS011;46021;55.882;37.654;2022-11-15T13:17:29;17.80;;;2.80;;
50671;SDS011;46021;55.882;37.654;2022-11-15T13:20:00;3.47;;;2.08;;
50671;SDS011;46021;55.882;37.654;2022-11-15T13:22:40;4.75;;;2.00;;
50671;SDS011;46021;55.882;37.654;2022-11-15T13:25:30;9.20;;;1.63;;
50671;SDS011;46021;55.882;37.654;2022-11-15T13:28:20;3.75;;;1.95;;
50671;SDS011;46021;55.882;37.654;2022-11-15T13:30:51;5.78;;;2.65;;
50671;SDS011;46021;55.882;37.654;2022-11-15T13:33:23;9.70;;;2.08;;
50671;SDS011;46021;55.882;37.654;2022-11-15T13:35:52;5.03;;;2.33;;
50671;SDS011;46021;55.882;37.654;2022-11-15T13:38:26;8.43;;;3.00;;
50671;SDS011;46021;55.882;37.654;2022-11-15T13:40:55;6.15;;;3.03;;
50671;SDS011;46021;55.882;37.654;2022-11-15T13:43:27;4.25;;;1.98;;
50671;SDS011;46021;55.882;37.654;2022-11-15T13:46:04;4.25;;;2.13;;
50671;SDS011;46021;55.882;37.654;2022-11-15T13:48:34;7.03;;;2.50;;
50671;SDS011;46021;55.882;37.654;2022-11-15T13:51:02;20.75;;;2.78;;
50671;SDS011;46021;55.882;37.654;2022-11-15T13:53:31;5.93;;;2.42;;
50671;SDS011;46021;55.882;37.654;2022-11-15T13:56:00;6.50;;;2.35;;
50671;SDS011;46021;55.882;37.654;2022-11-15T13:58:29;16.13;;;2.53;;
50671;SDS011;46021;55.882;37.654;2022-11-15T14:00:59;10.05;;;2.22;;
50671;SDS011;46021;55.882;37.654;2022-11-15T14:03:28;7.57;;;2.72;;
50671;SDS011;46021;55.882;37.654;2022-11-15T14:06:06;4.22;;;2.22;;
50671;SDS011;46021;55.882;37.654;2022-11-15T14:08:37;7.88;;;2.75;;
50671;SDS011;46021;55.882;37.654;2022-11-15T14:11:06;9.90;;;3.20;;
50671;SDS011;46021;55.882;37.654;2022-11-15T14:13:36;5.65;;;1.98;;
50671;SDS011;46021;55.882;37.654;2022-11-15T14:16:13;3.80;;;1.83;;
50671;SDS011;46021;55.882;37.654;2022-11-15T14:18:43;9.07;;;3.17;;
50671;SDS011;46021;55.882;37.654;2022-11-15T14:21:14;11.40;;;1.83;;
50671;SDS011;46021;55.882;37.654;2022-11-15T14:23:41;6.38;;;2.90;;
50671;SDS011;46021;55.882;37.654;2022-11-15T14:26:11;5.47;;;2.22;;
50671;SDS011;46021;55.882;37.654;2022-11-15T14:28:53;7.72;;;3.35;;
50671;SDS011;46021;55.882;37.654;2022-11-15T14:31:20;6.43;;;2.65;;
50671;SDS011;46021;55.882;37.654;2022-11-15T14:33:48;13.57;;;3.45;;
50671;SDS011;46021;55.882;37.654;2022-11-15T14:36:17;7.57;;;2.80;;
50671;SDS011;46021;55.882;37.654;2022-11-15T14:38:46;7.95;;;2.85;;
50671;SDS011;46021;55.882;37.654;2022-11-15T14:41:17;7.15;;;2.83;;
50671;SDS011;46021;55.882;37.654;2022-11-15T14:43:46;8.43;;;2.72;;
50671;SDS011;46021;55.882;37.654;2022-11-15T14:46:14;13.85;;;3.15;;
50671;SDS011;46021;55.882;37.654;2022-11-15T14:48:41;8.13;;;2.60;;
50671;SDS011;46021;55.882;37.654;2022-11-15T14:51:12;10.77;;;3.17;;
50671;SDS011;46021;55.882;37.654;2022-11-15T14:53:41;11.55;;;2.85;;
50671;SDS011;46021;55.882;37.654;2022-11-15T14:56:09;5.95;;;2.92;;
50671;SDS011;46021;55.882;37.654;2022-11-15T14:58:36;7.55;;;3.47;;
50671;SDS011;46021;55.882;37.654;2022-11-15T15:01:09;10.57;;;3.97;;
50671;SDS011;46021;55.882;37.654;2022-11-15T15:03:39;12.20;;;3.55;;
50671;SDS011;46021;55.882;37.654;2022-11-15T15:06:06;11.95;;;3.55;;
50671;SDS011;46021;55.882;37.654;2022-11-15T15:08:35;6.10;;;3.20;;
50671;SDS011;46021;55.882;37.654;2022-11-15T15:11:06;13.05;;;3.83;;
50671;SDS011;46021;55.882;37.654;2022-11-15T15:13:36;4.32;;;2.28;;
50671;SDS011;46021;55.882;37.654;2022-11-15T15:16:04;8.23;;;3.15;;
50671;SDS011;46021;55.882;37.654;2022-11-15T15:18:31;9.23;;;3.58;;
50671;SDS011;46021;55.882;37.654;2022-11-15T15:20:58;7.05;;;2.83;;
50671;SDS011;46021;55.882;37.654;2022-11-15T15:23:32;5.18;;;2.85;;
50671;SDS011;46021;55.882;37.654;2022-11-15T15:26:00;6.50;;;2.35;;
50671;SDS011;46021;55.882;37.654;2022-11-15T15:28:29;3.60;;;2.05;;
50671;SDS011;46021;55.882;37.654;2022-11-15T15:30:56;16.23;;;2.78;;
50671;SDS011;46021;55.882;37.654;2022-11-15T15:33:23;4.88;;;1.77;;
50671;SDS011;46021;55.882;37.654;2022-11-15T15:35:51;5.00;;;2.53;;
50671;SDS011;46021;55.882;37.654;2022-11-15T15:38:18;7.43;;;3.03;;
50671;SDS011;46021;55.882;37.654;2022-11-15T15:43:13;12.60;;;3.33;;
50671;SDS011;46021;55.882;37.654;2022-11-15T15:45:42;10.73;;;3.00;;
50671;SDS011;46021;55.882;37.654;2022-11-15T15:48:10;5.80;;;2.10;;
50671;SDS011;46021;55.882;37.654;2022-11-15T15:50:39;8.55;;;3.05;;
50671;SDS011;46021;55.882;37.654;2022-11-15T15:53:08;5.15;;;2.50;;
50671;SDS011;46021;55.882;37.654;2022-11-15T15:55:36;8.15;;;3.78;;
50671;SDS011;46021;55.882;37.654;2022-11-15T15:58:04;8.18;;;3.15;;
50671;SDS011;46021;55.882;37.654;2022-11-15T16:00:33;9.02;;;3.33;;
50671;SDS011;46021;55.882;37.654;2022-11-15T16:03:02;6.93;;;3.30;;
50671;SDS011;46021;55.882;37.654;2022-11-15T16:05:30;7.63;;;3.67;;
50671;SDS011;46021;55.882;37.654;2022-11-15T16:07:57;11.35;;;3.58;;
50671;SDS011;46021;55.882;37.654;2022-11-15T16:10:24;9.35;;;3.67;;
50671;SDS011;46021;55.882;37.654;2022-11-15T16:12:53;9.88;;;4.82;;
50671;SDS011;46021;55.882;37.654;2022-11-15T16:15:22;10.98;;;3.95;;
50671;SDS011;46021;55.882;37.654;2022-11-15T16:17:51;11.07;;;3.95;;
50671;SDS011;46021;55.882;37.654;2022-11-15T16:20:27;12.48;;;4.35;;
50671;SDS011;46021;55.882;37.654;2022-11-15T16:22:59;6.85;;;3.13;;
50671;SDS011;46021;55.882;37.654;2022-11-15T16:27:54;5.97;;;3.20;;
50671;SDS011;46021;55.882;37.654;2022-11-15T16:30:21;6.57;;;2.80;;
50671;SDS011;46021;55.882;37.654;2022-11-15T16:32:49;11.00;;;3.90;;
50671;SDS011;46021;55.882;37.654;2022-11-15T16:35:16;15.75;;;5.47;;
50671;SDS011;46021;55.882;37.654;2022-11-15T16:40:16;15.68;;;4.00;;
50671;SDS011;46021;55.882;37.654;2022-11-15T16:42:50;8.43;;;3.87;;
50671;SDS011;46021;55.882;37.654;2022-11-15T16:45:18;12.73;;;5.80;;
50671;SDS011;46021;55.882;37.654;2022-11-15T16:47:45;9.85;;;4.70;;
50671;SDS011;46021;55.882;37.654;2022-11-15T16:50:15;8.75;;;4.32;;
50671;SDS011;46021;55.882;37.654;2022-11-15T16:52:50;12.00;;;4.45;;
50671;SDS011;46021;55.882;37.654;2022-11-15T16:55:18;10.73;;;4.35;;
50671;SDS011;46021;55.882;37.654;2022-11-15T16:57:46;18.77;;;4.70;;